sensor_id;sensor_type;location;lat;lon;timestamp;pressure;altitude;pressure_sealevel;temperature;humidity
12775;BME280;6451;42.630;23.382;2023-06-22T00:00:50;94831.22;;;21.68;100.00
12775;BME280;6451;42.630;23.382;2023-06-22T00:03:18;94818.22;;;21.61;100.00
12775;BME280;6451;42.630;23.382;2023-06-22T00:05:46;94823.56;;;21.31;100.00
12775;BME280;6451;42.630;23.382;2023-06-22T00:08:14;94827.91;;;21.25;100.00
12775;BME280;6451;42.630;23.382;2023-06-22T00:10:41;94828.66;;;21.36;100.00
12775;BME280;6451;42.630;23.382;2023-06-22T00:13:10;94823.16;;;21.32;100.00
12775;BME280;6451;42.630;23.382;2023-06-22T00:15:38;94809.38;;;21.32;100.00
12775;BME280;6451;42.630;23.382;2023-06-22T00:18:08;94827.38;;;21.51;100.00
12775;BME280;6451;42.630;23.382;2023-06-22T00:20:37;94815.13;;;21.52;100.00
12775;BME280;6451;42.630;23.382;2023-06-22T00:23:06;94812.06;;;21.43;100.00
12775;BME280;6451;42.630;23.382;2023-06-22T00:25:34;94809.66;;;21.49;100.00
12775;BME280;6451;42.630;23.382;2023-06-22T00:28:03;94769.94;;;21.28;100.00
12775;BME280;6451;42.630;23.382;2023-06-22T00:30:32;94805.28;;;21.51;100.00
12775;BME280;6451;42.630;23.382;2023-06-22T00:32:59;94761.31;;;21.19;100.00
12775;BME280;6451;42.630;23.382;2023-06-22T00:35:27;94790.06;;;21.25;100.00
12775;BME280;6451;42.630;23.382;2023-06-22T00:37:54;94784.16;;;21.16;100.00
12775;BME280;6451;42.630;23.382;2023-06-22T00:40:26;94800.31;;;21.32;100.00
12775;BME280;6451;42.630;23.382;2023-06-22T00:42:54;94782.19;;;21.27;100.00
12775;BME280;6451;42.630;23.382;2023-06-22T00:45:21;94786.56;;;21.18;100.00
12775;BME280;6451;42.630;23.382;2023-06-22T00:47:48;94795.06;;;20.64;100.00
12775;BME280;6451;42.630;23.382;2023-06-22T00:50:18;94803.78;;;20.45;100.00
12775;BME280;6451;42.630;23.382;2023-06-22T00:52:51;94788.84;;;20.21;100.00
12775;BME280;6451;42.630;23.382;2023-06-22T00:55:18;94799.06;;;20.31;100.00
12775;BME280;6451;42.630;23.382;2023-06-22T00:57:46;94790.06;;;20.02;100.00
12775;BME280;6451;42.630;23.382;2023-06-22T01:00:13;94776.31;;;19.95;100.00
12775;BME280;6451;42.630;23.382;2023-06-22T01:02:42;94797.53;;;20.09;100.00
12775;BME280;6451;42.630;23.382;2023-06-22T01:05:10;94796.75;;;20.01;100.00
12775;BME280;6451;42.630;23.382;2023-06-22T01:07:44;94789.69;;;19.75;100.00
12775;BME280;6451;42.630;23.382;2023-06-22T01:10:19;94805.41;;;20.10;100.00
12775;BME280;6451;42.630;23.382;2023-06-22T01:12:51;94797.13;;;20.07;100.00
12775;BME280;6451;42.630;23.382;2023-06-22T01:15:23;94794.78;;;19.98;100.00
12775;BME280;6451;42.630;23.382;2023-06-22T01:17:52;94803.44;;;20.11;100.00
12775;BME280;6451;42.630;23.382;2023-06-22T01:20:21;94806.59;;;20.02;100.00
12775;BME280;6451;42.630;23.382;2023-06-22T01:23:02;94813.28;;;20.01;100.00
12775;BME280;6451;42.630;23.382;2023-06-22T01:25:46;94812.06;;;20.23;100.00
12775;BME280;6451;42.630;23.382;2023-06-22T01:31:17;94812.06;;;20.34;100.00
12775;BME280;6451;42.630;23.382;2023-06-22T01:33:48;94816.81;;;20.26;100.00
12775;BME280;6451;42.630;23.382;2023-06-22T01:36:16;94797.09;;;20.28;100.00
12775;BME280;6451;42.630;23.382;2023-06-22T01:38:44;94803.00;;;20.44;100.00
12775;BME280;6451;42.630;23.382;2023-06-22T01:41:15;94813.25;;;20.47;100.00
12775;BME280;6451;42.630;23.382;2023-06-22T01:43:42;94786.84;;;20.46;100.00
12775;BME280;6451;42.630;23.382;2023-06-22T01:46:10;94801.84;;;20.27;100.00
12775;BME280;6451;42.630;23.382;2023-06-22T01:48:40;94812.81;;;20.56;100.00
12775;BME280;6451;42.630;23.382;2023-06-22T01:51:07;94825.41;;;20.64;100.00
12775;BME280;6451;42.630;23.382;2023-06-22T01:53:34;94827.75;;;20.73;100.00
12775;BME280;6451;42.630;23.382;2023-06-22T01:56:01;94790.41;;;20.36;100.00
12775;BME280;6451;42.630;23.382;2023-06-22T01:58:29;94756.19;;;20.19;100.00
12775;BME280;6451;42.630;23.382;2023-06-22T02:00:59;94833.28;;;20.66;100.00
12775;BME280;6451;42.630;23.382;2023-06-22T02:03:32;94805.31;;;20.64;100.00
12775;BME280;6451;42.630;23.382;2023-06-22T02:06:05;94805.69;;;20.62;100.00
12775;BME280;6451;42.630;23.382;2023-06-22T02:08:38;94825.41;;;20.61;100.00
12775;BME280;6451;42.630;23.382;2023-06-22T02:11:08;94826.91;;;20.83;100.00
12775;BME280;6451;42.630;23.382;2023-06-22T02:13:36;94835.13;;;20.97;100.00
12775;BME280;6451;42.630;23.382;2023-06-22T02:16:08;94837.53;;;20.88;100.00
12775;BME280;6451;42.630;23.382;2023-06-22T02:18:35;94826.03;;;21.04;100.00
12775;BME280;6451;42.630;23.382;2023-06-22T02:21:03;94814.69;;;20.84;100.00
12775;BME280;6451;42.630;23.382;2023-06-22T02:23:30;94811.91;;;20.91;100.00
12775;BME280;6451;42.630;23.382;2023-06-22T02:25:58;94825.25;;;21.03;100.00
12775;BME280;6451;42.630;23.382;2023-06-22T02:28:26;94826.50;;;20.88;100.00
12775;BME280;6451;42.630;23.382;2023-06-22T02:30:53;94831.34;;;20.63;100.00
12775;BME280;6451;42.630;23.382;2023-06-22T02:33:20;94826.53;;;20.77;100.00
12775;BME280;6451;42.630;23.382;2023-06-22T02:35:47;94821.44;;;20.69;100.00
12775;BME280;6451;42.630;23.382;2023-06-22T02:38:15;94809.22;;;20.70;100.00
12775;BME280;6451;42.630;23.382;2023-06-22T02:40:42;94811.94;;;20.77;100.00
12775;BME280;6451;42.630;23.382;2023-06-22T02:43:09;94816.34;;;20.60;100.00
12775;BME280;6451;42.630;23.382;2023-06-22T02:45:36;94810.50;;;20.47;100.00
12775;BME280;6451;42.630;23.382;2023-06-22T02:48:04;94823.47;;;20.58;100.00
12775;BME280;6451;42.630;23.382;2023-06-22T02:50:31;94815.94;;;20.65;100.00
12775;BME280;6451;42.630;23.382;2023-06-22T02:52:58;94826.59;;;20.52;100.00
12775;BME280;6451;42.630;23.382;2023-06-22T02:55:26;94833.28;;;20.66;100.00
12775;BME280;6451;42.630;23.382;2023-06-22T02:57:54;94824.59;;;20.71;100.00
12775;BME280;6451;42.630;23.382;2023-06-22T03:00:22;94827.75;;;20.73;100.00
12775;BME280;6451;42.630;23.382;2023-06-22T03:02:56;94828.81;;;20.97;100.00
12775;BME280;6451;42.630;23.382;2023-06-22T03:05:25;94827.22;;;20.99;100.00
12775;BME280;6451;42.630;23.382;2023-06-22T03:07:52;94811.88;;;20.98;100.00
12775;BME280;6451;42.630;23.382;2023-06-22T03:10:20;94792.28;;;20.71;100.00
12775;BME280;6451;42.630;23.382;2023-06-22T03:12:50;94816.53;;;21.08;100.00
12775;BME280;6451;42.630;23.382;2023-06-22T03:15:16;94836.25;;;21.10;100.00
12775;BME280;6451;42.630;23.382;2023-06-22T03:17:43;94839.47;;;20.98;100.00
12775;BME280;6451;42.630;23.382;2023-06-22T03:20:11;94844.56;;;21.00;100.00
12775;BME280;6451;42.630;23.382;2023-06-22T03:22:38;94851.75;;;20.76;100.00
12775;BME280;6451;42.630;23.382;2023-06-22T03:25:07;94849.34;;;20.85;100.00
12775;BME280;6451;42.630;23.382;2023-06-22T03:27:38;94861.53;;;20.98;100.00
12775;BME280;6451;42.630;23.382;2023-06-22T03:30:11;94851.69;;;20.97;100.00
12775;BME280;6451;42.630;23.382;2023-06-22T03:32:38;94863.50;;;20.98;100.00
12775;BME280;6451;42.630;23.382;2023-06-22T03:35:06;94828.91;;;20.79;100.00
12775;BME280;6451;42.630;23.382;2023-06-22T03:37:33;94835.94;;;20.91;100.00
12775;BME280;6451;42.630;23.382;2023-06-22T03:40:00;94873.28;;;21.20;100.00
12775;BME280;6451;42.630;23.382;2023-06-22T03:42:28;94836.69;;;20.98;100.00
12775;BME280;6451;42.630;23.382;2023-06-22T03:44:54;94840.63;;;21.04;100.00
12775;BME280;6451;42.630;23.382;2023-06-22T03:47:23;94720.34;;;20.26;100.00
12775;BME280;6451;42.630;23.382;2023-06-22T03:49:51;94861.81;;;21.29;100.00
12775;BME280;6451;42.630;23.382;2023-06-22T03:52:20;94868.44;;;21.46;100.00
12775;BME280;6451;42.630;23.382;2023-06-22T03:54:47;94869.25;;;21.39;100.00
12775;BME280;6451;42.630;23.382;2023-06-22T03:57:14;94872.59;;;21.75;100.00
12775;BME280;6451;42.630;23.382;2023-06-22T03:59:41;94875.84;;;21.59;100.00
12775;BME280;6451;42.630;23.382;2023-06-22T04:02:08;94882.50;;;21.73;100.00
12775;BME280;6451;42.630;23.382;2023-06-22T04:04:36;94879.28;;;21.81;100.00
12775;BME280;6451;42.630;23.382;2023-06-22T04:07:04;94883.59;;;21.86;100.00
12775;BME280;6451;42.630;23.382;2023-06-22T04:09:31;94886.06;;;21.66;100.00
12775;BME280;6451;42.630;23.382;2023-06-22T04:11:58;94890.28;;;21.85;100.00
12775;BME280;6451;42.630;23.382;2023-06-22T04:14:25;94833.31;;;21.46;100.00
12775;BME280;6451;42.630;23.382;2023-06-22T04:16:52;94883.84;;;22.09;100.00
12775;BME280;6451;42.630;23.382;2023-06-22T04:19:19;94872.31;;;22.18;100.00
12775;BME280;6451;42.630;23.382;2023-06-22T04:21:47;94822.06;;;21.78;100.00
12775;BME280;6451;42.630;23.382;2023-06-22T04:24:15;94875.88;;;22.18;100.00
12775;BME280;6451;42.630;23.382;2023-06-22T04:26:41;94865.94;;;22.25;100.00
12775;BME280;6451;42.630;23.382;2023-06-22T04:29:10;94870.03;;;22.51;100.00
12775;BME280;6451;42.630;23.382;2023-06-22T04:31:37;94836.09;;;22.02;100.00
12775;BME280;6451;42.630;23.382;2023-06-22T04:34:05;94804.84;;;22.12;100.00
12775;BME280;6451;42.630;23.382;2023-06-22T04:36:34;94847.44;;;22.59;100.00
12775;BME280;6451;42.630;23.382;2023-06-22T04:39:05;94800.47;;;22.14;100.00
12775;BME280;6451;42.630;23.382;2023-06-22T04:41:35;94842.75;;;22.94;100.00
12775;BME280;6451;42.630;23.382;2023-06-22T04:44:09;94854.81;;;22.73;100.00
12775;BME280;6451;42.630;23.382;2023-06-22T04:46:36;94831.19;;;22.61;100.00
12775;BME280;6451;42.630;23.382;2023-06-22T04:49:07;94854.25;;;22.89;100.00
12775;BME280;6451;42.630;23.382;2023-06-22T04:51:40;94816.09;;;22.69;100.00
12775;BME280;6451;42.630;23.382;2023-06-22T04:54:09;94841.41;;;23.06;100.00
12775;BME280;6451;42.630;23.382;2023-06-22T04:56:36;94856.66;;;22.87;100.00
12775;BME280;6451;42.630;23.382;2023-06-22T04:59:06;94821.25;;;23.05;100.00
12775;BME280;6451;42.630;23.382;2023-06-22T05:01:33;94861.06;;;23.15;100.00
12775;BME280;6451;42.630;23.382;2023-06-22T05:04:01;94861.66;;;23.29;100.00
12775;BME280;6451;42.630;23.382;2023-06-22T05:06:29;94864.13;;;22.90;100.00
12775;BME280;6451;42.630;23.382;2023-06-22T05:08:57;94873.38;;;22.72;100.00
12775;BME280;6451;42.630;23.382;2023-06-22T05:11:25;94884.66;;;22.51;100.00
12775;BME280;6451;42.630;23.382;2023-06-22T05:13:54;94882.59;;;22.62;100.00
12775;BME280;6451;42.630;23.382;2023-06-22T05:16:22;94868.28;;;23.09;100.00
12775;BME280;6451;42.630;23.382;2023-06-22T05:18:53;94872.88;;;23.19;100.00
12775;BME280;6451;42.630;23.382;2023-06-22T05:21:22;94864.75;;;23.39;100.00
12775;BME280;6451;42.630;23.382;2023-06-22T05:23:51;94866.31;;;23.40;100.00
12775;BME280;6451;42.630;23.382;2023-06-22T05:26:19;94859.81;;;23.80;100.00
12775;BME280;6451;42.630;23.382;2023-06-22T05:28:47;94873.25;;;24.09;100.00
12775;BME280;6451;42.630;23.382;2023-06-22T05:31:16;94861.38;;;24.32;100.00
12775;BME280;6451;42.630;23.382;2023-06-22T05:33:45;94872.06;;;24.57;100.00
12775;BME280;6451;42.630;23.382;2023-06-22T05:36:14;94878.53;;;24.93;100.00
12775;BME280;6451;42.630;23.382;2023-06-22T05:38:41;94875.94;;;24.83;100.00
12775;BME280;6451;42.630;23.382;2023-06-22T05:41:08;94889.94;;;24.56;100.00
12775;BME280;6451;42.630;23.382;2023-06-22T05:43:35;94862.44;;;24.42;100.00
12775;BME280;6451;42.630;23.382;2023-06-22T05:46:04;94884.44;;;24.52;100.00
12775;BME280;6451;42.630;23.382;2023-06-22T05:48:31;94900.16;;;25.06;100.00
12775;BME280;6451;42.630;23.382;2023-06-22T05:50:58;94913.72;;;25.00;100.00
12775;BME280;6451;42.630;23.382;2023-06-22T05:53:25;94880.44;;;24.77;100.00
12775;BME280;6451;42.630;23.382;2023-06-22T05:55:52;94899.22;;;25.12;100.00
12775;BME280;6451;42.630;23.382;2023-06-22T05:58:19;94905.34;;;24.80;100.00
12775;BME280;6451;42.630;23.382;2023-06-22T06:00:46;94910.53;;;25.02;100.00
12775;BME280;6451;42.630;23.382;2023-06-22T06:03:15;94893.97;;;25.18;100.00
12775;BME280;6451;42.630;23.382;2023-06-22T06:05:43;94898.19;;;25.03;100.00
12775;BME280;6451;42.630;23.382;2023-06-22T06:08:11;94908.41;;;25.09;100.00
12775;BME280;6451;42.630;23.382;2023-06-22T06:10:38;94898.16;;;25.46;100.00
12775;BME280;6451;42.630;23.382;2023-06-22T06:13:04;94904.56;;;25.63;100.00
12775;BME280;6451;42.630;23.382;2023-06-22T06:15:32;94889.97;;;25.95;100.00
12775;BME280;6451;42.630;23.382;2023-06-22T06:17:59;94889.34;;;25.67;100.00
12775;BME280;6451;42.630;23.382;2023-06-22T06:20:27;94894.88;;;26.23;100.00
12775;BME280;6451;42.630;23.382;2023-06-22T06:22:54;94886.16;;;26.05;100.00
12775;BME280;6451;42.630;23.382;2023-06-22T06:25:21;94872.63;;;26.23;100.00
12775;BME280;6451;42.630;23.382;2023-06-22T06:27:49;94887.47;;;26.17;100.00
12775;BME280;6451;42.630;23.382;2023-06-22T06:30:18;94885.31;;;26.57;100.00
12775;BME280;6451;42.630;23.382;2023-06-22T06:32:46;94885.81;;;26.84;100.00
12775;BME280;6451;42.630;23.382;2023-06-22T06:35:14;94886.38;;;26.63;100.00
12775;BME280;6451;42.630;23.382;2023-06-22T06:37:44;94894.78;;;26.76;100.00
12775;BME280;6451;42.630;23.382;2023-06-22T06:40:12;94888.56;;;26.39;100.00
12775;BME280;6451;42.630;23.382;2023-06-22T06:42:40;94888.59;;;26.68;100.00
12775;BME280;6451;42.630;23.382;2023-06-22T06:45:10;94885.41;;;26.70;100.00
12775;BME280;6451;42.630;23.382;2023-06-22T06:47:37;94849.19;;;26.99;100.00
12775;BME280;6451;42.630;23.382;2023-06-22T06:50:05;94872.09;;;27.06;100.00
12775;BME280;6451;42.630;23.382;2023-06-22T06:52:32;94855.13;;;27.01;100.00
12775;BME280;6451;42.630;23.382;2023-06-22T06:55:00;94861.22;;;26.67;100.00
12775;BME280;6451;42.630;23.382;2023-06-22T06:57:28;94869.63;;;26.79;100.00
12775;BME280;6451;42.630;23.382;2023-06-22T06:59:55;94872.81;;;26.94;100.00
12775;BME280;6451;42.630;23.382;2023-06-22T07:02:22;94867.38;;;27.61;100.00
12775;BME280;6451;42.630;23.382;2023-06-22T07:04:49;94856.84;;;27.53;100.00
12775;BME280;6451;42.630;23.382;2023-06-22T07:07:16;94856.47;;;27.80;100.00
12775;BME280;6451;42.630;23.382;2023-06-22T07:09:43;94858.38;;;27.83;100.00
12775;BME280;6451;42.630;23.382;2023-06-22T07:12:12;94871.91;;;27.13;100.00
12775;BME280;6451;42.630;23.382;2023-06-22T07:14:39;94877.53;;;27.26;100.00
12775;BME280;6451;42.630;23.382;2023-06-22T07:17:06;94867.28;;;27.23;100.00
12775;BME280;6451;42.630;23.382;2023-06-22T07:19:33;94863.13;;;27.57;100.00
12775;BME280;6451;42.630;23.382;2023-06-22T07:22:00;94866.63;;;27.74;100.00
12775;BME280;6451;42.630;23.382;2023-06-22T07:24:27;94831.06;;;27.23;100.00
12775;BME280;6451;42.630;23.382;2023-06-22T07:26:54;94881.50;;;27.54;100.00
12775;BME280;6451;42.630;23.382;2023-06-22T07:29:24;94853.22;;;27.81;100.00
12775;BME280;6451;42.630;23.382;2023-06-22T07:31:52;94859.59;;;27.82;100.00
12775;BME280;6451;42.630;23.382;2023-06-22T07:34:21;94850.91;;;27.92;100.00
12775;BME280;6451;42.630;23.382;2023-06-22T07:36:48;94831.88;;;27.49;100.00
12775;BME280;6451;42.630;23.382;2023-06-22T07:39:16;94855.25;;;27.93;100.00
12775;BME280;6451;42.630;23.382;2023-06-22T07:41:43;94869.31;;;28.41;100.00
12775;BME280;6451;42.630;23.382;2023-06-22T07:44:12;94860.84;;;27.93;100.00
12775;BME280;6451;42.630;23.382;2023-06-22T07:46:40;94869.75;;;28.26;100.00
12775;BME280;6451;42.630;23.382;2023-06-22T07:49:07;94876.69;;;28.82;100.00
12775;BME280;6451;42.630;23.382;2023-06-22T07:51:34;94863.97;;;28.81;100.00
12775;BME280;6451;42.630;23.382;2023-06-22T07:54:01;94804.69;;;28.30;100.00
12775;BME280;6451;42.630;23.382;2023-06-22T07:56:28;94871.47;;;28.84;100.00
12775;BME280;6451;42.630;23.382;2023-06-22T07:58:55;94841.09;;;29.08;95.49
12775;BME280;6451;42.630;23.382;2023-06-22T08:01:23;94870.88;;;29.46;94.20
12775;BME280;6451;42.630;23.382;2023-06-22T08:03:52;94861.56;;;29.49;92.08
12775;BME280;6451;42.630;23.382;2023-06-22T08:06:20;94869.72;;;29.56;87.99
12775;BME280;6451;42.630;23.382;2023-06-22T08:08:46;94850.66;;;29.95;85.54
12775;BME280;6451;42.630;23.382;2023-06-22T08:11:14;94860.56;;;29.86;81.08
12775;BME280;6451;42.630;23.382;2023-06-22T08:13:41;94846.88;;;29.57;82.31
12775;BME280;6451;42.630;23.382;2023-06-22T08:16:08;94850.34;;;29.61;83.22
12775;BME280;6451;42.630;23.382;2023-06-22T08:18:35;94854.09;;;29.99;86.38
12775;BME280;6451;42.630;23.382;2023-06-22T08:21:04;94835.84;;;29.85;83.91
12775;BME280;6451;42.630;23.382;2023-06-22T08:23:30;94852.09;;;30.49;83.24
12775;BME280;6451;42.630;23.382;2023-06-22T08:25:57;94847.16;;;30.62;83.01
12775;BME280;6451;42.630;23.382;2023-06-22T08:28:24;94835.31;;;30.58;81.78
12775;BME280;6451;42.630;23.382;2023-06-22T08:30:51;94848.03;;;30.40;83.83
12775;BME280;6451;42.630;23.382;2023-06-22T08:33:18;94845.22;;;30.40;86.66
12775;BME280;6451;42.630;23.382;2023-06-22T08:35:45;94843.19;;;30.32;85.56
12775;BME280;6451;42.630;23.382;2023-06-22T08:38:13;94831.97;;;30.23;81.46
12775;BME280;6451;42.630;23.382;2023-06-22T08:40:41;94845.22;;;30.00;85.75
12775;BME280;6451;42.630;23.382;2023-06-22T08:43:08;94844.31;;;30.03;87.19
12775;BME280;6451;42.630;23.382;2023-06-22T08:45:34;94838.16;;;30.76;82.81
12775;BME280;6451;42.630;23.382;2023-06-22T08:48:01;94857.03;;;30.35;84.55
12775;BME280;6451;42.630;23.382;2023-06-22T08:50:30;94851.22;;;29.89;84.03
12775;BME280;6451;42.630;23.382;2023-06-22T08:52:57;94850.41;;;30.60;81.68
12775;BME280;6451;42.630;23.382;2023-06-22T08:55:25;94854.75;;;30.52;84.69
12775;BME280;6451;42.630;23.382;2023-06-22T09:00:27;94845.28;;;30.09;85.23
12775;BME280;6451;42.630;23.382;2023-06-22T09:02:58;94841.91;;;29.83;87.65
12775;BME280;6451;42.630;23.382;2023-06-22T09:05:25;94834.63;;;29.95;87.82
12775;BME280;6451;42.630;23.382;2023-06-22T09:07:51;94789.63;;;29.71;86.02
12775;BME280;6451;42.630;23.382;2023-06-22T09:10:20;94826.09;;;30.30;84.92
12775;BME280;6451;42.630;23.382;2023-06-22T09:12:49;94830.38;;;30.12;82.17
12775;BME280;6451;42.630;23.382;2023-06-22T09:15:16;94813.44;;;30.16;82.08
12775;BME280;6451;42.630;23.382;2023-06-22T09:17:43;94834.97;;;30.37;84.28
12775;BME280;6451;42.630;23.382;2023-06-22T09:20:12;94815.50;;;30.43;81.22
12775;BME280;6451;42.630;23.382;2023-06-22T09:22:40;94815.38;;;30.56;80.29
12775;BME280;6451;42.630;23.382;2023-06-22T09:25:07;94835.16;;;30.52;80.82
12775;BME280;6451;42.630;23.382;2023-06-22T09:27:34;94833.03;;;31.11;80.59
12775;BME280;6451;42.630;23.382;2023-06-22T09:30:05;94830.84;;;30.69;79.87
12775;BME280;6451;42.630;23.382;2023-06-22T09:32:32;94828.69;;;31.01;78.87
12775;BME280;6451;42.630;23.382;2023-06-22T09:34:59;94818.22;;;31.11;80.02
12775;BME280;6451;42.630;23.382;2023-06-22T09:37:25;94838.03;;;30.98;80.91
12775;BME280;6451;42.630;23.382;2023-06-22T09:39:52;94838.78;;;30.80;81.80
12775;BME280;6451;42.630;23.382;2023-06-22T09:42:20;94836.91;;;31.41;79.71
12775;BME280;6451;42.630;23.382;2023-06-22T09:44:47;94820.75;;;30.90;80.32
12775;BME280;6451;42.630;23.382;2023-06-22T09:47:15;94822.91;;;31.32;77.82
12775;BME280;6451;42.630;23.382;2023-06-22T09:49:43;94834.88;;;31.60;76.54
12775;BME280;6451;42.630;23.382;2023-06-22T09:52:11;94834.75;;;31.27;73.89
12775;BME280;6451;42.630;23.382;2023-06-22T09:54:38;94835.38;;;31.04;65.88
12775;BME280;6451;42.630;23.382;2023-06-22T09:57:06;94833.13;;;30.62;67.13
12775;BME280;6451;42.630;23.382;2023-06-22T09:59:33;94829.75;;;31.13;65.21
12775;BME280;6451;42.630;23.382;2023-06-22T10:02:00;94816.94;;;30.48;67.54
12775;BME280;6451;42.630;23.382;2023-06-22T10:04:28;94817.94;;;30.90;66.98
12775;BME280;6451;42.630;23.382;2023-06-22T10:06:56;94799.53;;;31.17;67.69
12775;BME280;6451;42.630;23.382;2023-06-22T10:09:23;94822.91;;;31.41;67.24
12775;BME280;6451;42.630;23.382;2023-06-22T10:11:50;94800.16;;;31.21;62.30
12775;BME280;6451;42.630;23.382;2023-06-22T10:14:17;94818.25;;;31.29;62.41
12775;BME280;6451;42.630;23.382;2023-06-22T10:16:44;94814.50;;;31.32;62.77
12775;BME280;6451;42.630;23.382;2023-06-22T10:19:12;94752.66;;;30.90;61.79
12775;BME280;6451;42.630;23.382;2023-06-22T10:21:40;94793.34;;;30.85;63.05
12775;BME280;6451;42.630;23.382;2023-06-22T10:24:07;94807.03;;;31.29;60.93
12775;BME280;6451;42.630;23.382;2023-06-22T10:26:35;94811.66;;;31.41;60.77
12775;BME280;6451;42.630;23.382;2023-06-22T10:29:02;94816.97;;;31.48;58.86
12775;BME280;6451;42.630;23.382;2023-06-22T10:31:29;94737.13;;;30.61;59.58
12775;BME280;6451;42.630;23.382;2023-06-22T10:33:56;94808.22;;;31.55;58.74
12775;BME280;6451;42.630;23.382;2023-06-22T10:36:23;94804.13;;;31.66;58.48
12775;BME280;6451;42.630;23.382;2023-06-22T10:38:51;94784.44;;;31.84;58.87
12775;BME280;6451;42.630;23.382;2023-06-22T10:41:19;94799.47;;;32.05;57.71
12775;BME280;6451;42.630;23.382;2023-06-22T10:43:45;94791.38;;;32.07;60.07
12775;BME280;6451;42.630;23.382;2023-06-22T10:46:12;94788.16;;;32.23;61.69
12775;BME280;6451;42.630;23.382;2023-06-22T10:48:39;94793.28;;;32.25;59.94
12775;BME280;6451;42.630;23.382;2023-06-22T10:51:06;94788.63;;;31.98;56.75
12775;BME280;6451;42.630;23.382;2023-06-22T10:53:33;94792.78;;;32.35;57.49
12775;BME280;6451;42.630;23.382;2023-06-22T10:56:01;94784.25;;;32.54;56.79
12775;BME280;6451;42.630;23.382;2023-06-22T10:58:28;94781.75;;;32.32;59.67
12775;BME280;6451;42.630;23.382;2023-06-22T11:00:55;94783.59;;;32.26;61.45
12775;BME280;6451;42.630;23.382;2023-06-22T11:03:22;94752.53;;;32.05;61.04
12775;BME280;6451;42.630;23.382;2023-06-22T11:05:49;94787.06;;;32.54;60.18
12775;BME280;6451;42.630;23.382;2023-06-22T11:08:16;94779.53;;;32.36;58.30
12775;BME280;6451;42.630;23.382;2023-06-22T11:10:43;94778.09;;;32.07;56.81
12775;BME280;6451;42.630;23.382;2023-06-22T11:13:12;94769.13;;;31.94;57.48
12775;BME280;6451;42.630;23.382;2023-06-22T11:15:41;94773.06;;;32.12;59.19
12775;BME280;6451;42.630;23.382;2023-06-22T11:18:07;94776.97;;;32.47;59.72
12775;BME280;6451;42.630;23.382;2023-06-22T11:20:34;94774.28;;;32.53;58.81
12775;BME280;6451;42.630;23.382;2023-06-22T11:23:04;94775.16;;;32.59;60.73
12775;BME280;6451;42.630;23.382;2023-06-22T11:25:32;94756.06;;;32.87;58.35
12775;BME280;6451;42.630;23.382;2023-06-22T11:28:01;94765.31;;;33.17;58.85
12775;BME280;6451;42.630;23.382;2023-06-22T11:30:29;94734.06;;;33.00;57.55
12775;BME280;6451;42.630;23.382;2023-06-22T11:32:56;94755.34;;;33.16;56.14
12775;BME280;6451;42.630;23.382;2023-06-22T11:35:24;94753.19;;;33.11;57.57
12775;BME280;6451;42.630;23.382;2023-06-22T11:37:52;94750.00;;;33.33;54.97
12775;BME280;6451;42.630;23.382;2023-06-22T11:40:19;94762.31;;;33.35;51.10
12775;BME280;6451;42.630;23.382;2023-06-22T11:42:46;94762.88;;;33.10;49.36
12775;BME280;6451;42.630;23.382;2023-06-22T11:45:13;94753.06;;;32.67;50.02
12775;BME280;6451;42.630;23.382;2023-06-22T11:47:41;94746.31;;;33.27;48.46
12775;BME280;6451;42.630;23.382;2023-06-22T11:50:09;94737.31;;;33.37;47.82
12775;BME280;6451;42.630;23.382;2023-06-22T11:52:37;94730.69;;;33.70;47.96
12775;BME280;6451;42.630;23.382;2023-06-22T11:55:05;94748.44;;;33.91;46.99
12775;BME280;6451;42.630;23.382;2023-06-22T11:57:33;94702.69;;;33.46;45.97
12775;BME280;6451;42.630;23.382;2023-06-22T12:00:01;94707.03;;;33.62;45.43
12775;BME280;6451;42.630;23.382;2023-06-22T12:02:31;94710.22;;;35.06;45.21
12775;BME280;6451;42.630;23.382;2023-06-22T12:05:00;94714.19;;;36.15;44.47
12775;BME280;6451;42.630;23.382;2023-06-22T12:07:30;94730.13;;;36.12;45.59
12775;BME280;6451;42.630;23.382;2023-06-22T12:09:56;94742.91;;;34.93;43.31
12775;BME280;6451;42.630;23.382;2023-06-22T12:12:23;94746.81;;;34.40;44.46
12775;BME280;6451;42.630;23.382;2023-06-22T12:14:50;94735.53;;;34.80;43.58
12775;BME280;6451;42.630;23.382;2023-06-22T12:17:17;94732.50;;;34.23;44.24
12775;BME280;6451;42.630;23.382;2023-06-22T12:19:44;94745.69;;;34.32;44.80
12775;BME280;6451;42.630;23.382;2023-06-22T12:22:13;94745.84;;;32.36;53.31
12775;BME280;6451;42.630;23.382;2023-06-22T12:24:40;94758.28;;;31.08;64.47
12775;BME280;6451;42.630;23.382;2023-06-22T12:27:06;94751.91;;;30.71;70.20
12775;BME280;6451;42.630;23.382;2023-06-22T12:29:33;94759.03;;;30.35;73.88
12775;BME280;6451;42.630;23.382;2023-06-22T12:32:00;94745.94;;;29.74;80.77
12775;BME280;6451;42.630;23.382;2023-06-22T12:34:27;94760.00;;;29.52;86.79
12775;BME280;6451;42.630;23.382;2023-06-22T12:36:54;94774.22;;;28.92;91.15
12775;BME280;6451;42.630;23.382;2023-06-22T12:39:22;94778.19;;;28.47;94.20
12775;BME280;6451;42.630;23.382;2023-06-22T12:41:49;94788.72;;;27.66;100.00
12775;BME280;6451;42.630;23.382;2023-06-22T12:44:17;94788.59;;;27.44;100.00
12775;BME280;6451;42.630;23.382;2023-06-22T12:46:44;94808.09;;;27.32;100.00
12775;BME280;6451;42.630;23.382;2023-06-22T12:49:10;94803.31;;;27.45;100.00
12775;BME280;6451;42.630;23.382;2023-06-22T12:51:39;94824.22;;;27.11;100.00
12775;BME280;6451;42.630;23.382;2023-06-22T12:54:07;94813.47;;;26.36;100.00
12775;BME280;6451;42.630;23.382;2023-06-22T12:56:36;94831.84;;;26.17;100.00
12775;BME280;6451;42.630;23.382;2023-06-22T12:59:03;94824.19;;;26.04;100.00
12775;BME280;6451;42.630;23.382;2023-06-22T13:01:32;94835.91;;;26.12;100.00